Notice: Undefined index: station in /home3/dimtiris/public_html/webApp/metar/index.php on line 4

Metar

Weather conditions for all airports of the world. Just type the ICAO code of an airport.

LGAV 271650Z 01012KT CAVOK 30/10 Q1011 NOSIG

STATION LGAV
OBSERVED Wed Jul 27, 10:50 MDT
NOW Wed Jul 27, 11:09 MDT
AGE 19 min ago
WIND N at 14 mph
VISIBILITY greater than 7 miles
CONDITIONS
CLOUDS clear skies
TEMP 86°F (30°C)
DEWPT 50°F (10°C)
HUMIDITY 29%
BAROMETER 1011 hPa (29.85 in Hg)

Get weather info from other station:

Some ICAO codes to try: